createdAt,value
2018-03-28T00:02:15.178Z,78.07
2018-03-28T00:04:41.700Z,78.34
2018-03-28T00:07:08.106Z,77.99
2018-03-28T00:09:34.491Z,78.38
2018-03-28T00:12:00.865Z,78.94
2018-03-28T00:14:27.269Z,77.89
2018-03-28T00:16:53.709Z,79.06
2018-03-28T00:19:20.089Z,78.46
2018-03-28T00:21:46.493Z,78.52
2018-03-28T00:24:12.830Z,79.00
2018-03-28T00:26:39.182Z,78.45
2018-03-28T00:29:05.544Z,78.61
2018-03-28T00:31:31.921Z,78.69
2018-03-28T00:33:58.278Z,78.97
2018-03-28T00:36:24.722Z,78.80
2018-03-28T00:38:51.097Z,78.53
2018-03-28T00:41:17.558Z,78.04
2018-03-28T00:43:43.974Z,78.31
2018-03-28T00:46:10.389Z,79.10
2018-03-28T00:48:36.839Z,79.12
2018-03-28T01:04:29.882Z,78.50
2018-03-28T01:06:56.378Z,78.72
2018-03-28T01:09:22.762Z,78.37
2018-03-28T01:11:49.165Z,78.32
2018-03-28T01:14:15.618Z,78.06
2018-03-28T01:16:42.041Z,78.56
2018-03-28T01:19:08.478Z,78.86
2018-03-28T01:21:34.911Z,78.57
2018-03-28T01:24:01.298Z,77.97
2018-03-28T01:26:27.654Z,77.53
2018-03-28T01:28:54.032Z,77.97
2018-03-28T01:31:20.457Z,78.77
2018-03-28T01:33:46.849Z,77.65
2018-03-28T01:36:13.249Z,78.78
2018-03-28T01:38:39.653Z,79.23
2018-03-28T01:41:06.085Z,77.63
2018-03-28T01:43:32.507Z,78.42
2018-03-28T01:45:58.878Z,79.03
2018-03-28T01:48:25.291Z,78.75
2018-03-28T01:50:51.685Z,79.50
2018-03-28T01:53:18.076Z,79.35
2018-03-28T01:55:44.450Z,78.68
2018-03-28T01:58:10.837Z,79.57
2018-03-28T02:00:37.230Z,78.08
2018-03-28T02:03:03.690Z,78.56
2018-03-28T02:05:30.069Z,77.71
2018-03-28T02:07:56.454Z,78.46
2018-03-28T02:10:22.830Z,79.53
2018-03-28T02:12:49.245Z,78.77
2018-03-28T02:15:15.621Z,78.76
2018-03-28T02:17:41.981Z,78.56
2018-03-28T02:20:08.408Z,79.04
2018-03-28T02:22:34.785Z,78.41
2018-03-28T02:25:01.233Z,78.35
2018-03-28T02:27:27.621Z,79.44
2018-03-28T02:29:54.050Z,77.55
2018-03-28T02:32:20.439Z,77.94
2018-03-28T02:34:46.811Z,79.19
2018-03-28T02:37:13.242Z,78.14
2018-03-28T02:39:39.727Z,79.51
2018-03-28T02:42:06.129Z,79.71
2018-03-28T02:44:32.521Z,79.53
2018-03-28T02:46:58.971Z,78.94
2018-03-28T02:49:25.362Z,78.55
2018-03-28T02:51:51.822Z,77.28
2018-03-28T02:54:18.226Z,77.44
2018-03-28T02:56:44.582Z,78.10
2018-03-28T02:59:10.964Z,77.94
2018-03-28T03:01:37.377Z,78.10
2018-03-28T03:04:03.887Z,78.04
2018-03-28T03:06:30.306Z,78.23
2018-03-28T03:08:56.731Z,78.71
2018-03-28T03:11:23.153Z,78.73
2018-03-28T03:13:49.557Z,78.48
2018-03-28T03:16:16.053Z,78.65
2018-03-28T03:18:42.438Z,79.17
2018-03-28T03:21:08.797Z,79.29
2018-03-28T03:23:35.174Z,79.57
2018-03-28T03:26:01.558Z,79.44
2018-03-28T03:28:27.938Z,79.33
2018-03-28T03:30:54.368Z,79.27
2018-03-28T03:33:20.750Z,79.50
2018-03-28T03:35:47.107Z,79.66
2018-03-28T03:38:13.485Z,79.34
2018-03-28T03:40:39.834Z,79.08
2018-03-28T03:43:06.187Z,79.28
2018-03-28T03:45:32.534Z,79.56
2018-03-28T03:47:58.929Z,79.79
2018-03-28T03:50:25.317Z,79.61
2018-03-28T03:52:51.681Z,79.43
2018-03-28T03:55:18.057Z,79.87
2018-03-28T03:57:44.413Z,79.71
2018-03-28T04:00:10.869Z,81.04
2018-03-28T04:02:37.246Z,81.07
2018-03-28T04:05:03.646Z,80.51
2018-03-28T04:07:30.003Z,81.06
2018-03-28T04:09:56.377Z,80.80
2018-03-28T04:12:22.809Z,80.75
2018-03-28T04:14:49.163Z,80.49
2018-03-28T04:17:15.537Z,80.30
2018-03-28T04:19:41.969Z,80.20
2018-03-28T04:22:08.421Z,80.67
2018-03-28T04:24:34.838Z,80.67
2018-03-28T04:27:01.278Z,80.74
2018-03-28T04:29:27.701Z,81.08
2018-03-28T04:31:54.130Z,80.92
2018-03-28T04:34:20.478Z,81.40
2018-03-28T04:36:46.842Z,81.77
2018-03-28T04:39:13.245Z,81.61
2018-03-28T04:41:39.601Z,81.59
2018-03-28T04:44:05.989Z,80.97
2018-03-28T04:46:32.369Z,80.67
2018-03-28T04:48:58.776Z,80.65
2018-03-28T04:51:25.218Z,81.19
2018-03-28T04:53:51.665Z,81.29
2018-03-28T04:56:18.052Z,81.19
2018-03-28T04:58:44.514Z,81.11
2018-03-28T05:01:10.923Z,81.44
2018-03-28T05:03:37.317Z,81.07
2018-03-28T05:06:03.744Z,80.85
2018-03-28T05:08:30.129Z,81.52
2018-03-28T05:10:56.584Z,81.53
2018-03-28T05:13:22.993Z,81.26
2018-03-28T05:15:49.551Z,80.82
2018-03-28T05:18:15.954Z,80.96
2018-03-28T05:20:42.702Z,80.65
2018-03-28T05:23:09.178Z,80.88
2018-03-28T05:25:36.250Z,81.11
2018-03-28T05:28:02.745Z,81.25
2018-03-28T05:30:29.389Z,81.44
2018-03-28T05:32:55.907Z,81.48
2018-03-28T05:35:22.393Z,81.06
2018-03-28T05:37:48.920Z,81.31
2018-03-28T05:40:15.390Z,81.25
2018-03-28T05:42:41.793Z,81.11
2018-03-28T05:45:08.204Z,81.63
2018-03-28T05:47:34.686Z,81.39
2018-03-28T05:50:01.154Z,81.55
2018-03-28T05:52:32.076Z,81.89
2018-03-28T05:54:59.040Z,81.70
2018-03-28T05:57:25.510Z,81.74
2018-03-28T05:59:52.009Z,81.54
2018-03-28T06:02:18.462Z,81.64
2018-03-28T06:04:44.870Z,81.79
2018-03-28T06:07:11.318Z,81.91
2018-03-28T06:09:37.749Z,82.01
2018-03-28T06:12:04.212Z,82.21
2018-03-28T06:14:30.614Z,82.78
2018-03-28T06:16:57.051Z,82.80
2018-03-28T06:19:23.466Z,82.79
2018-03-28T06:21:49.921Z,83.11
2018-03-28T06:24:16.386Z,83.16
2018-03-28T06:26:42.934Z,83.39
2018-03-28T06:29:09.322Z,83.85
2018-03-28T06:31:35.697Z,83.63
2018-03-28T06:34:02.122Z,83.80
2018-03-28T06:36:28.621Z,83.43
2018-03-28T06:38:55.169Z,83.11
2018-03-28T06:41:21.540Z,82.81
2018-03-28T06:43:47.977Z,82.83
2018-03-28T06:46:14.397Z,83.14
2018-03-28T06:48:40.873Z,83.05
2018-03-28T06:51:07.462Z,83.05
2018-03-28T06:53:33.866Z,82.61
2018-03-28T06:56:00.270Z,82.67
2018-03-28T06:58:26.726Z,82.28
2018-03-28T07:00:53.178Z,81.96
2018-03-28T07:03:19.555Z,82.07
2018-03-28T07:05:46.038Z,82.90
2018-03-28T07:08:12.494Z,82.61
2018-03-28T07:10:38.870Z,82.21
2018-03-28T07:13:05.331Z,81.98
2018-03-28T07:15:31.709Z,81.88
2018-03-28T07:17:58.094Z,82.14
2018-03-28T07:20:24.551Z,82.60
2018-03-28T07:22:51.038Z,81.84
2018-03-28T07:25:17.498Z,81.65
2018-03-28T07:27:44.028Z,81.55
2018-03-28T07:30:10.487Z,82.94
2018-03-28T07:32:37.045Z,82.24
2018-03-28T07:35:03.601Z,83.06
2018-03-28T07:37:30.091Z,82.45
2018-03-28T07:39:56.628Z,82.18
2018-03-28T07:42:23.107Z,81.99
2018-03-28T07:44:49.626Z,81.86
2018-03-28T07:47:16.042Z,82.11
2018-03-28T07:49:42.466Z,82.39
2018-03-28T07:52:08.929Z,80.67
2018-03-28T07:54:35.358Z,82.82
2018-03-28T07:57:01.822Z,83.09
2018-03-28T07:59:28.227Z,80.81
2018-03-28T08:01:54.650Z,81.30
2018-03-28T08:04:21.006Z,79.85
2018-03-28T08:06:47.460Z,80.61
2018-03-28T08:09:13.990Z,80.49
2018-03-28T08:11:40.506Z,80.42
2018-03-28T08:14:06.953Z,82.17
2018-03-28T08:16:33.488Z,81.54
2018-03-28T08:18:59.857Z,81.06
2018-03-28T08:21:26.301Z,80.53
2018-03-28T08:23:52.765Z,82.22
2018-03-28T08:26:19.197Z,82.18
2018-03-28T08:28:45.624Z,80.91
2018-03-28T08:31:12.070Z,80.28
2018-03-28T08:33:38.501Z,79.87
2018-03-28T08:36:04.901Z,81.77
2018-03-28T08:38:31.309Z,80.96
2018-03-28T08:40:57.798Z,81.24
2018-03-28T08:43:24.238Z,80.05
2018-03-28T08:45:50.850Z,80.17
2018-03-28T08:48:17.417Z,80.84
2018-03-28T08:50:43.898Z,80.00
2018-03-28T08:53:10.350Z,82.15
2018-03-28T08:55:36.801Z,81.68
2018-03-28T08:58:03.234Z,79.98
2018-03-28T09:00:29.678Z,81.42
2018-03-28T09:02:56.232Z,80.63
2018-03-28T09:05:22.696Z,81.86
2018-03-28T09:07:49.162Z,80.60
2018-03-28T09:10:15.662Z,79.69
2018-03-28T09:12:42.174Z,81.09
2018-03-28T09:15:08.724Z,82.45
2018-03-28T09:17:35.161Z,81.38
2018-03-28T09:20:01.641Z,80.88
2018-03-28T09:22:28.159Z,80.92
2018-03-28T09:24:54.673Z,81.39
2018-03-28T09:27:21.205Z,83.34
2018-03-28T09:29:47.626Z,83.40
2018-03-28T09:32:14.373Z,81.91
2018-03-28T09:34:40.833Z,82.51
2018-03-28T09:37:07.318Z,82.06
2018-03-28T09:39:33.758Z,81.52
2018-03-28T09:42:00.122Z,82.30
2018-03-28T09:44:26.573Z,82.28
2018-03-28T09:46:54.848Z,81.44
2018-03-28T09:49:21.981Z,81.34
2018-03-28T09:51:48.577Z,81.92
2018-03-28T09:54:14.963Z,81.20
2018-03-28T09:56:41.442Z,80.14
2018-03-28T09:59:07.815Z,80.44
2018-03-28T10:01:34.290Z,80.49
2018-03-28T10:04:12.779Z,80.84
2018-03-28T10:06:40.061Z,82.04
2018-03-28T10:09:06.494Z,81.22
2018-03-28T10:11:33.066Z,81.90
2018-03-28T10:13:59.786Z,82.79
2018-03-28T10:16:26.513Z,82.90
2018-03-28T10:18:53.113Z,81.41
2018-03-28T10:21:19.541Z,82.45
2018-03-28T10:23:46.114Z,82.30
2018-03-28T10:26:12.770Z,80.12
2018-03-28T10:28:39.228Z,80.65
2018-03-28T10:31:05.717Z,81.92
2018-03-28T10:33:34.062Z,81.47
2018-03-28T10:36:00.522Z,81.79
2018-03-28T10:38:27.054Z,81.83
2018-03-28T10:40:53.474Z,80.33
2018-03-28T10:43:20.030Z,80.43
2018-03-28T10:45:46.451Z,80.86
2018-03-28T10:48:12.870Z,80.62
2018-03-28T10:50:39.373Z,80.91
2018-03-28T10:53:05.778Z,79.37
2018-03-28T10:55:32.246Z,81.29
2018-03-28T10:57:58.946Z,81.83
2018-03-28T11:00:25.339Z,80.01
2018-03-28T11:02:53.917Z,82.23
2018-03-28T11:05:23.708Z,80.74
2018-03-28T11:07:50.437Z,81.21
2018-03-28T11:10:16.890Z,79.71
2018-03-28T11:12:43.466Z,80.21
2018-03-28T11:15:09.873Z,81.21
2018-03-28T11:17:37.456Z,81.29
2018-03-28T11:20:03.969Z,81.19
2018-03-28T11:22:30.438Z,79.98
2018-03-28T11:24:56.938Z,79.97
2018-03-28T11:27:23.461Z,79.54
2018-03-28T11:29:49.957Z,79.27
2018-03-28T11:32:16.346Z,79.88
2018-03-28T11:34:42.932Z,79.63
2018-03-28T11:37:09.400Z,80.62
2018-03-28T11:39:35.991Z,80.47
2018-03-28T11:42:02.463Z,80.76
2018-03-28T11:44:28.917Z,79.50
2018-03-28T11:46:55.372Z,79.14
2018-03-28T11:49:21.814Z,79.33
2018-03-28T11:51:48.246Z,80.16
2018-03-28T11:54:14.695Z,78.93
2018-03-28T11:56:41.146Z,77.64
2018-03-28T11:59:07.643Z,79.08
2018-03-28T12:01:34.173Z,80.23
2018-03-28T12:04:00.659Z,80.08
2018-03-28T12:06:27.101Z,78.69
2018-03-28T12:08:53.538Z,80.32
2018-03-28T12:11:20.051Z,80.54
2018-03-28T12:13:46.449Z,79.22
2018-03-28T12:16:12.834Z,79.96
2018-03-28T12:18:39.366Z,79.30
2018-03-28T12:21:05.774Z,79.44
2018-03-28T12:23:32.283Z,78.47
2018-03-28T12:25:58.780Z,79.24
2018-03-28T12:28:27.095Z,80.01
2018-03-28T12:30:53.566Z,81.62
2018-03-28T12:33:23.060Z,80.41
2018-03-28T12:35:51.330Z,80.08
2018-03-28T12:38:21.566Z,78.15
2018-03-28T12:40:55.874Z,78.25
2018-03-28T12:43:32.065Z,78.85
2018-03-28T12:46:05.182Z,78.59
2018-03-28T12:48:34.289Z,81.59
2018-03-28T12:51:01.962Z,79.00
2018-03-28T12:53:30.164Z,80.23
2018-03-28T12:55:56.950Z,79.97
2018-03-28T12:58:23.474Z,80.38
2018-03-28T13:00:51.754Z,78.46
2018-03-28T13:03:18.290Z,77.16
2018-03-28T13:05:44.659Z,79.77
2018-03-28T13:08:11.113Z,79.46
2018-03-28T13:10:37.512Z,79.52
2018-03-28T13:13:17.986Z,79.04
2018-03-28T13:15:44.465Z,79.75
2018-03-28T13:18:11.012Z,78.73
2018-03-28T13:20:37.542Z,78.62
2018-03-28T13:23:03.946Z,78.25
2018-03-28T13:25:30.548Z,79.46
2018-03-28T13:27:56.949Z,79.38
2018-03-28T13:30:23.412Z,79.94
2018-03-28T13:32:49.884Z,79.67
2018-03-28T13:35:16.249Z,78.96
2018-03-28T13:37:42.764Z,78.15
2018-03-28T13:40:09.189Z,79.02
2018-03-28T13:42:35.626Z,79.19
2018-03-28T13:45:02.094Z,76.62
2018-03-28T13:47:28.517Z,76.75
2018-03-28T13:49:55.018Z,76.48
2018-03-28T13:52:21.545Z,76.49
2018-03-28T13:54:47.968Z,76.06
2018-03-28T13:57:14.377Z,77.71
2018-03-28T13:59:40.872Z,77.38
2018-03-28T14:02:07.333Z,76.55
2018-03-28T14:04:34.609Z,77.68
2018-03-28T14:07:07.009Z,78.88
2018-03-28T14:09:35.556Z,77.66
2018-03-28T14:12:05.561Z,79.20
2018-03-28T14:14:35.737Z,77.65
2018-03-28T14:17:02.334Z,76.87
2018-03-28T14:19:29.920Z,77.00
2018-03-28T14:21:56.308Z,78.06
2018-03-28T14:24:22.782Z,77.59
2018-03-28T14:26:49.362Z,77.38
2018-03-28T14:29:15.930Z,78.32
2018-03-28T14:31:42.409Z,77.85
2018-03-28T14:34:08.854Z,76.67
2018-03-28T14:36:35.344Z,76.30
2018-03-28T14:39:01.726Z,79.01
2018-03-28T14:41:28.481Z,79.61
2018-03-28T14:43:54.861Z,77.86
2018-03-28T14:46:21.350Z,75.40
2018-03-28T14:48:47.775Z,77.46
2018-03-28T14:51:14.194Z,77.87
2018-03-28T14:53:40.749Z,76.93
2018-03-28T14:56:07.233Z,78.96
2018-03-28T14:58:33.777Z,78.93
2018-03-28T15:01:00.228Z,78.58
2018-03-28T15:03:26.609Z,77.81
2018-03-28T15:05:53.016Z,76.28
2018-03-28T15:08:19.447Z,75.05
2018-03-28T15:10:45.842Z,74.77
2018-03-28T15:13:12.312Z,75.86
2018-03-28T15:15:38.748Z,74.18
2018-03-28T15:18:05.118Z,74.20
2018-03-28T15:20:31.656Z,76.20
2018-03-28T15:22:58.114Z,75.26
2018-03-28T15:25:24.670Z,75.78
2018-03-28T15:27:51.201Z,75.50
2018-03-28T15:30:17.655Z,74.68
2018-03-28T15:32:44.126Z,76.04
2018-03-28T15:35:10.549Z,78.31
2018-03-28T15:37:36.986Z,76.66
2018-03-28T15:40:03.473Z,75.85
2018-03-28T15:42:29.998Z,76.30
2018-03-28T15:44:56.847Z,75.14
2018-03-28T15:47:23.469Z,75.17
2018-03-28T15:49:49.833Z,74.89
2018-03-28T15:52:16.280Z,74.15
2018-03-28T15:54:42.714Z,74.81
2018-03-28T15:57:09.108Z,74.31
2018-03-28T15:59:35.526Z,75.10
2018-03-28T16:02:01.933Z,74.16
2018-03-28T16:04:28.369Z,74.69
2018-03-28T16:06:54.754Z,74.09
2018-03-28T16:09:21.133Z,76.33
2018-03-28T16:11:47.605Z,74.24
2018-03-28T16:14:13.993Z,73.61
2018-03-28T16:16:40.429Z,74.01
2018-03-28T16:19:06.965Z,73.51
2018-03-28T16:21:33.361Z,76.20
2018-03-28T16:23:59.735Z,78.59
2018-03-28T16:26:26.167Z,77.85
2018-03-28T16:28:52.559Z,79.95
2018-03-28T16:31:18.973Z,76.74
2018-03-28T16:33:45.393Z,75.87
2018-03-28T16:36:11.819Z,76.68
2018-03-28T16:38:38.261Z,76.02
2018-03-28T16:41:04.746Z,74.62
2018-03-28T16:43:31.149Z,76.04
2018-03-28T16:45:57.610Z,75.02
2018-03-28T16:48:24.118Z,74.69
2018-03-28T16:50:50.602Z,74.02
2018-03-28T16:53:16.989Z,74.13
2018-03-28T16:55:43.429Z,75.10
2018-03-28T16:58:09.848Z,74.83
2018-03-28T17:00:36.297Z,75.56
2018-03-28T17:03:02.765Z,75.86
2018-03-28T17:05:29.145Z,75.99
2018-03-28T17:07:55.554Z,75.90
2018-03-28T17:10:22.014Z,75.88
2018-03-28T17:12:48.518Z,76.28
2018-03-28T17:15:14.970Z,76.10
2018-03-28T17:17:41.423Z,75.87
2018-03-28T17:20:07.865Z,76.09
2018-03-28T17:22:34.242Z,76.04
2018-03-28T17:25:00.634Z,76.16
2018-03-28T17:27:27.123Z,76.16
2018-03-28T17:29:53.565Z,76.08
2018-03-28T17:32:19.958Z,76.04
2018-03-28T17:34:46.401Z,76.43
2018-03-28T17:37:12.800Z,77.01
2018-03-28T17:39:39.222Z,77.25
2018-03-28T17:42:05.654Z,77.27
2018-03-28T17:44:32.998Z,77.03
2018-03-28T17:46:59.442Z,77.18
2018-03-28T17:49:25.797Z,77.44
2018-03-28T17:51:52.318Z,77.17
2018-03-28T17:54:18.694Z,77.22
2018-03-28T17:56:45.061Z,76.99
2018-03-28T17:59:11.494Z,77.20
2018-03-28T18:01:37.902Z,77.28
2018-03-28T18:04:04.381Z,76.94
2018-03-28T18:06:30.795Z,77.61
2018-03-28T18:08:57.390Z,77.57
2018-03-28T18:11:23.766Z,77.37
2018-03-28T18:13:50.253Z,77.52
2018-03-28T18:16:17.162Z,77.72
2018-03-28T18:18:44.777Z,78.33
2018-03-28T18:21:11.150Z,77.97
2018-03-28T18:23:37.559Z,77.58
2018-03-28T18:26:04.049Z,77.83
2018-03-28T18:28:30.567Z,78.20
2018-03-28T18:30:57.025Z,78.02
2018-03-28T18:33:23.443Z,78.50
2018-03-28T18:35:49.820Z,78.77
2018-03-28T18:38:16.351Z,78.73
2018-03-28T18:40:42.748Z,78.40
2018-03-28T18:43:09.174Z,77.63
2018-03-28T18:45:35.595Z,78.10
2018-03-28T18:48:01.995Z,78.15
2018-03-28T18:50:28.559Z,77.81
2018-03-28T18:52:54.979Z,78.27
2018-03-28T18:55:21.641Z,78.17
2018-03-28T18:57:48.078Z,77.90
2018-03-28T19:00:14.549Z,78.00
2018-03-28T19:02:40.945Z,77.62
2018-03-28T19:05:07.333Z,77.59
2018-03-28T19:07:33.841Z,78.79
2018-03-28T19:10:00.246Z,77.94
2018-03-28T19:12:26.691Z,77.99
2018-03-28T19:14:53.165Z,78.01
2018-03-28T19:17:19.616Z,77.83
2018-03-28T19:19:46.129Z,78.21
2018-03-28T19:22:12.545Z,78.03
2018-03-28T19:24:38.993Z,78.16
2018-03-28T19:27:05.428Z,79.39
2018-03-28T19:29:31.909Z,79.76
2018-03-28T19:31:58.341Z,78.92
2018-03-28T19:34:24.766Z,78.39
2018-03-28T19:36:51.213Z,78.46
2018-03-28T19:39:17.637Z,78.89
2018-03-28T19:41:44.051Z,78.67
2018-03-28T19:44:11.135Z,78.08
2018-03-28T19:46:37.552Z,78.17
2018-03-28T19:49:03.953Z,78.77
2018-03-28T19:51:30.376Z,78.12
2018-03-28T19:53:56.793Z,77.68
2018-03-28T19:56:23.217Z,77.92
2018-03-28T19:58:49.661Z,77.75
2018-03-28T20:01:16.050Z,77.55
2018-03-28T20:03:42.500Z,78.02
2018-03-28T20:06:08.984Z,79.36
2018-03-28T20:08:35.357Z,78.70
2018-03-28T20:11:02.576Z,78.89
2018-03-28T20:13:29.857Z,77.75
2018-03-28T20:15:57.438Z,78.42
2018-03-28T20:18:24.062Z,77.87
2018-03-28T20:20:50.426Z,76.35
2018-03-28T20:23:16.964Z,76.92
2018-03-28T20:25:43.458Z,77.50
2018-03-28T20:28:09.873Z,77.14
2018-03-28T20:30:36.253Z,77.80
2018-03-28T20:33:02.834Z,77.67
2018-03-28T20:35:29.307Z,77.33
2018-03-28T20:37:55.705Z,77.91
2018-03-28T20:40:22.186Z,78.52
2018-03-28T20:42:48.609Z,77.82
2018-03-28T20:45:15.094Z,78.34
2018-03-28T20:47:41.457Z,77.42
2018-03-28T20:50:07.902Z,77.20
2018-03-28T20:52:34.294Z,77.37
2018-03-28T20:55:00.694Z,77.25
2018-03-28T20:57:27.103Z,77.11
2018-03-28T20:59:53.580Z,77.04
2018-03-28T21:02:19.990Z,77.64
2018-03-28T21:04:46.538Z,77.33
2018-03-28T21:07:12.921Z,78.08
2018-03-28T21:09:39.323Z,78.29
2018-03-28T21:12:05.694Z,77.66
2018-03-28T21:14:32.106Z,78.12
2018-03-28T21:16:58.481Z,77.98
2018-03-28T21:19:24.843Z,77.31
2018-03-28T21:21:51.416Z,77.50
2018-03-28T21:24:17.789Z,78.88
2018-03-28T21:26:44.153Z,78.52
2018-03-28T21:29:10.518Z,78.17
2018-03-28T21:31:36.913Z,78.75
2018-03-28T21:34:03.306Z,78.00
2018-03-28T21:36:29.775Z,78.39
2018-03-28T21:38:56.349Z,77.75
2018-03-28T21:41:22.722Z,77.40
2018-03-28T21:43:49.104Z,76.79
2018-03-28T21:46:15.473Z,77.24
2018-03-28T21:48:41.838Z,78.24
2018-03-28T21:51:08.213Z,78.42
2018-03-28T21:53:34.601Z,78.00
2018-03-28T21:56:00.965Z,77.34
2018-03-28T21:58:27.330Z,77.27
2018-03-28T22:00:53.720Z,78.03
2018-03-28T22:03:20.117Z,78.52
2018-03-28T22:05:46.494Z,78.14
2018-03-28T22:08:12.877Z,77.58
2018-03-28T22:10:39.301Z,76.34
2018-03-28T22:13:05.665Z,76.41
2018-03-28T22:15:32.017Z,77.07
2018-03-28T22:17:58.381Z,77.13
2018-03-28T22:20:24.749Z,78.39
2018-03-28T22:22:51.133Z,76.49
2018-03-28T22:25:17.546Z,76.27
2018-03-28T22:27:44.238Z,76.35
2018-03-28T22:30:10.748Z,76.33
2018-03-28T22:32:37.206Z,78.28
2018-03-28T22:35:03.585Z,77.40
2018-03-28T22:37:30.008Z,77.54
2018-03-28T22:39:56.445Z,78.71
2018-03-28T22:42:22.801Z,78.90
2018-03-28T22:44:49.156Z,77.59
2018-03-28T22:47:15.560Z,77.98
2018-03-28T22:49:41.906Z,77.89
2018-03-28T22:52:08.285Z,77.51
2018-03-28T22:54:34.634Z,77.49
2018-03-28T22:57:01.010Z,77.07
2018-03-28T22:59:27.386Z,77.50
2018-03-28T23:01:53.750Z,77.52
2018-03-28T23:04:20.122Z,77.88
2018-03-28T23:06:46.490Z,77.51
2018-03-28T23:09:12.845Z,77.10
2018-03-28T23:11:39.239Z,81.77
2018-03-28T23:14:05.604Z,80.94
2018-03-28T23:16:32.015Z,79.27
2018-03-28T23:18:58.378Z,78.16
2018-03-28T23:21:24.756Z,77.56
2018-03-28T23:23:51.132Z,76.87
2018-03-28T23:26:17.506Z,76.42
2018-03-28T23:28:43.862Z,77.29
2018-03-28T23:31:10.295Z,77.82
2018-03-28T23:33:36.698Z,77.80
2018-03-28T23:36:03.106Z,77.60
2018-03-28T23:38:29.513Z,78.47
2018-03-28T23:40:56.005Z,77.81
2018-03-28T23:43:22.368Z,77.38
2018-03-28T23:45:48.877Z,76.66
2018-03-28T23:48:15.246Z,76.96
2018-03-28T23:50:41.777Z,80.12
2018-03-28T23:53:08.198Z,82.38
2018-03-28T23:55:34.582Z,79.22
2018-03-28T23:58:00.960Z,78.82
